Time;durP1;ratioP1;P1;durP2;ratioP2;P2;SDS_P1;SDS_P2;PMS_P1;PMS_P2;Temp;Humidity;BMP_temperature;BMP_pressure;BME280_temperature;BME280_humidity;BME280_pressure;Samples;Min_cycle;Max_cycle;Signal;HPM_P1;HPM_P2
2021/09/03 00:00:04;;;;;;;8.50;6.50;;;;;;;;;;5070043;28;20540;-74
2021/09/03 00:02:31;;;;;;;11.20;8.07;;;;;;;;;;5067829;28;20460;-74
2021/09/03 00:04:58;;;;;;;7.70;5.87;;;;;;;;;;5070468;28;20458;-76
2021/09/03 00:07:25;;;;;;;7.80;6.50;;;;;;;;;;5069714;28;20446;-77
2021/09/03 00:09:52;;;;;;;6.83;5.93;;;;;;;;;;5070633;28;20457;-76
2021/09/03 00:12:22;;;;;;;8.17;6.83;;;;;;;;;;5070460;28;20514;-77
2021/09/03 00:14:49;;;;;;;6.90;5.37;;;;;;;;;;5070535;28;20465;-78
2021/09/03 00:17:17;;;;;;;7.03;5.57;;;;;;;;;;5069669;28;20489;-76
2021/09/03 00:19:44;;;;;;;8.00;6.77;;;;;;;;;;5068929;28;20450;-76
2021/09/03 00:22:11;;;;;;;8.40;6.23;;;;;;;;;;5070721;28;20963;-76
2021/09/03 00:24:38;;;;;;;10.00;7.57;;;;;;;;;;5069985;28;20456;-75
2021/09/03 00:27:05;;;;;;;12.93;8.93;;;;;;;;;;5070016;28;20533;-76
2021/09/03 00:29:34;;;;;;;8.53;6.73;;;;;;;;;;5067784;28;20454;-76
2021/09/03 00:32:01;;;;;;;9.33;7.00;;;;;;;;;;5068901;28;20960;-77
2021/09/03 00:34:28;;;;;;;8.27;6.50;;;;;;;;;;5069623;28;20797;-77
2021/09/03 00:36:56;;;;;;;9.20;7.40;;;;;;;;;;5069493;28;20508;-77
2021/09/03 00:39:23;;;;;;;7.93;6.83;;;;;;;;;;5069773;28;20812;-77
2021/09/03 00:41:50;;;;;;;9.77;6.73;;;;;;;;;;5070428;28;20449;-77
2021/09/03 00:44:18;;;;;;;7.10;5.93;;;;;;;;;;5070249;28;20481;-78
2021/09/03 00:46:46;;;;;;;7.77;6.90;;;;;;;;;;5069602;28;20481;-76
2021/09/03 00:49:13;;;;;;;10.40;6.27;;;;;;;;;;5069293;28;20479;-78
2021/09/03 00:51:40;;;;;;;8.33;6.43;;;;;;;;;;5069493;28;20451;-76
2021/09/03 00:54:08;;;;;;;38.20;9.50;;;;;;;;;;5069589;28;20477;-78
2021/09/03 00:56:35;;;;;;;9.20;6.60;;;;;;;;;;5070621;28;20572;-77
2021/09/03 00:59:03;;;;;;;8.27;7.10;;;;;;;;;;5071514;28;20561;-74
2021/09/03 01:01:30;;;;;;;8.07;6.90;;;;;;;;;;5071598;28;20481;-76
2021/09/03 01:03:58;;;;;;;8.90;7.17;;;;;;;;;;5071812;28;20441;-77
2021/09/03 01:06:26;;;;;;;10.40;6.90;;;;;;;;;;5075285;28;20444;-75
2021/09/03 01:08:53;;;;;;;11.53;6.60;;;;;;;;;;5087414;28;20536;-78
2021/09/03 01:11:20;;;;;;;6.97;6.23;;;;;;;;;;5082276;28;20444;-78
2021/09/03 01:13:47;;;;;;;8.80;7.13;;;;;;;;;;5085079;28;20448;-78
2021/09/03 01:16:14;;;;;;;8.60;7.00;;;;;;;;;;5071411;28;20481;-78
2021/09/03 01:18:41;;;;;;;9.03;6.60;;;;;;;;;;5070940;28;20456;-78
2021/09/03 01:21:10;;;;;;;9.30;7.13;;;;;;;;;;5071348;28;20453;-78
2021/09/03 01:23:38;;;;;;;10.50;6.17;;;;;;;;;;5071065;28;20447;-77
2021/09/03 01:26:06;;;;;;;7.33;6.30;;;;;;;;;;5071577;28;20449;-77
2021/09/03 01:28:34;;;;;;;9.57;7.00;;;;;;;;;;5070712;28;20446;-77
2021/09/03 01:31:01;;;;;;;7.30;6.27;;;;;;;;;;5071782;28;20528;-78
2021/09/03 01:33:28;;;;;;;10.57;6.73;;;;;;;;;;5071023;28;20815;-78
2021/09/03 01:35:55;;;;;;;13.53;7.23;;;;;;;;;;5070799;28;20481;-77
2021/09/03 01:38:23;;;;;;;8.70;6.93;;;;;;;;;;5071134;28;20446;-73
2021/09/03 01:40:52;;;;;;;9.93;5.83;;;;;;;;;;5070495;28;20495;-78
2021/09/03 01:43:19;;;;;;;7.67;6.70;;;;;;;;;;5071282;28;20825;-78
2021/09/03 01:45:46;;;;;;;10.43;7.60;;;;;;;;;;5065950;28;20532;-77
2021/09/03 01:48:13;;;;;;;7.33;6.20;;;;;;;;;;5071112;28;20569;-77
2021/09/03 01:50:40;;;;;;;8.97;6.50;;;;;;;;;;5070016;28;20449;-78
2021/09/03 01:53:07;;;;;;;8.57;6.90;;;;;;;;;;5070630;28;20438;-77
2021/09/03 01:55:34;;;;;;;8.33;6.33;;;;;;;;;;5070453;28;20491;-78
2021/09/03 01:58:03;;;;;;;6.50;5.60;;;;;;;;;;5070605;28;20446;-76
2021/09/03 02:00:30;;;;;;;10.17;6.57;;;;;;;;;;5070060;28;20546;-75
2021/09/03 02:02:57;;;;;;;10.20;6.60;;;;;;;;;;5070831;28;20442;-79
2021/09/03 02:05:24;;;;;;;9.90;6.47;;;;;;;;;;5069512;28;20464;-76
2021/09/03 02:07:52;;;;;;;7.87;6.30;;;;;;;;;;5070337;28;20561;-77
2021/09/03 02:10:19;;;;;;;7.40;6.17;;;;;;;;;;5070797;28;20457;-77
2021/09/03 02:12:46;;;;;;;9.83;7.47;;;;;;;;;;5070314;28;20829;-78
2021/09/03 02:15:14;;;;;;;11.70;7.00;;;;;;;;;;5070242;28;20456;-78
2021/09/03 02:17:41;;;;;;;8.73;7.40;;;;;;;;;;5070650;28;20441;-76
2021/09/03 02:20:09;;;;;;;8.13;6.57;;;;;;;;;;5070278;28;20446;-77
2021/09/03 02:22:36;;;;;;;7.77;6.53;;;;;;;;;;5069897;28;20437;-77
2021/09/03 02:25:04;;;;;;;7.47;5.73;;;;;;;;;;5070454;28;20807;-72
2021/09/03 02:27:31;;;;;;;11.53;6.80;;;;;;;;;;5070278;28;20455;-78
2021/09/03 02:29:58;;;;;;;7.87;5.73;;;;;;;;;;5070461;28;20452;-76
2021/09/03 02:32:27;;;;;;;7.63;6.20;;;;;;;;;;5070250;28;20894;-77
2021/09/03 02:34:54;;;;;;;7.83;6.77;;;;;;;;;;5070352;28;20528;-77
2021/09/03 02:37:21;;;;;;;8.33;6.63;;;;;;;;;;5070563;28;21015;-78
2021/09/03 02:39:48;;;;;;;7.90;7.07;;;;;;;;;;5070163;28;20459;-76
2021/09/03 02:42:15;;;;;;;10.17;7.10;;;;;;;;;;5070618;28;20445;-78
2021/09/03 02:44:43;;;;;;;10.23;6.70;;;;;;;;;;5070115;28;20751;-77
2021/09/03 02:47:10;;;;;;;8.23;6.60;;;;;;;;;;5070439;28;20528;-77
2021/09/03 02:49:39;;;;;;;9.10;6.87;;;;;;;;;;5069826;28;20912;-78
2021/09/03 02:52:06;;;;;;;7.43;5.73;;;;;;;;;;5070761;28;20437;-78
2021/09/03 02:54:34;;;;;;;8.90;5.97;;;;;;;;;;5069791;28;20448;-78
2021/09/03 02:57:01;;;;;;;7.63;6.30;;;;;;;;;;5070507;28;20560;-78
2021/09/03 02:59:28;;;;;;;8.60;6.27;;;;;;;;;;5069506;28;20817;-78
2021/09/03 03:01:55;;;;;;;7.60;6.53;;;;;;;;;;5070060;28;20445;-78
2021/09/03 03:04:22;;;;;;;9.77;6.07;;;;;;;;;;5070120;28;20528;-78
2021/09/03 03:06:51;;;;;;;8.27;5.70;;;;;;;;;;5070269;28;20548;-77
2021/09/03 03:09:18;;;;;;;8.00;6.30;;;;;;;;;;5069870;28;20438;-79
2021/09/03 03:11:45;;;;;;;8.20;6.97;;;;;;;;;;5069315;28;20449;-78
2021/09/03 03:14:16;;;;;;;6.93;6.23;;;;;;;;;;5070011;28;20492;-78
2021/09/03 03:16:43;;;;;;;12.50;6.70;;;;;;;;;;5070979;28;20838;-75
2021/09/03 03:19:10;;;;;;;7.27;6.23;;;;;;;;;;5073784;28;20444;-79
2021/09/03 03:21:38;;;;;;;6.83;6.13;;;;;;;;;;5073483;28;20954;-78
2021/09/03 03:24:06;;;;;;;7.87;5.67;;;;;;;;;;5073563;28;20802;-78
2021/09/03 03:26:33;;;;;;;11.47;6.93;;;;;;;;;;5073078;28;20770;-78
2021/09/03 03:29:01;;;;;;;9.30;6.80;;;;;;;;;;5073268;28;20816;-78
2021/09/03 03:31:31;;;;;;;8.40;6.17;;;;;;;;;;5073474;28;20524;-78
2021/09/03 03:33:59;;;;;;;10.60;7.20;;;;;;;;;;5073629;28;20449;-77
2021/09/03 03:36:26;;;;;;;12.40;6.30;;;;;;;;;;5073083;28;20835;-77
2021/09/03 03:38:53;;;;;;;9.57;7.13;;;;;;;;;;5073600;28;20449;-76
2021/09/03 03:41:21;;;;;;;10.10;6.50;;;;;;;;;;5073229;28;20477;-77
2021/09/03 03:43:49;;;;;;;8.67;6.60;;;;;;;;;;5073489;28;20482;-78
2021/09/03 03:46:16;;;;;;;8.23;6.80;;;;;;;;;;5073571;28;20437;-78
2021/09/03 03:48:43;;;;;;;8.07;6.63;;;;;;;;;;5072400;28;20477;-74
2021/09/03 03:51:10;;;;;;;7.07;5.70;;;;;;;;;;5073044;28;20532;-77
2021/09/03 03:53:37;;;;;;;8.87;7.10;;;;;;;;;;5072951;28;20476;-78
2021/09/03 03:56:05;;;;;;;8.00;6.17;;;;;;;;;;5072644;28;20560;-77
2021/09/03 03:58:33;;;;;;;9.87;7.00;;;;;;;;;;5071870;28;20445;-78
2021/09/03 04:01:00;;;;;;;8.37;7.10;;;;;;;;;;5072811;28;21008;-79
2021/09/03 04:03:27;;;;;;;8.90;6.20;;;;;;;;;;5073031;28;20448;-78
2021/09/03 04:05:55;;;;;;;8.33;6.30;;;;;;;;;;5073452;28;20445;-77
2021/09/03 04:08:22;;;;;;;8.20;5.80;;;;;;;;;;5072846;28;20452;-78
2021/09/03 04:10:49;;;;;;;8.50;6.43;;;;;;;;;;5072555;28;20532;-77
2021/09/03 04:13:16;;;;;;;7.40;5.97;;;;;;;;;;5072915;28;20449;-77
2021/09/03 04:15:45;;;;;;;9.20;7.13;;;;;;;;;;5071479;28;20446;-77
2021/09/03 04:18:12;;;;;;;8.70;6.50;;;;;;;;;;5073006;28;20437;-77
2021/09/03 04:20:39;;;;;;;9.40;6.43;;;;;;;;;;5072708;28;20565;-78
2021/09/03 04:23:09;;;;;;;6.97;5.50;;;;;;;;;;5073142;28;20520;-78
2021/09/03 04:25:36;;;;;;;8.10;6.53;;;;;;;;;;5077570;28;20449;-78
2021/09/03 04:28:03;;;;;;;10.00;6.60;;;;;;;;;;5086188;28;20531;-74
2021/09/03 04:30:30;;;;;;;9.00;6.23;;;;;;;;;;5080045;28;20871;-76
2021/09/03 04:32:59;;;;;;;6.80;6.10;;;;;;;;;;5072575;28;20441;-77
2021/09/03 04:35:26;;;;;;;6.57;5.83;;;;;;;;;;5071618;28;20441;-78
2021/09/03 04:37:54;;;;;;;11.60;7.10;;;;;;;;;;5073373;28;20552;-77
2021/09/03 04:40:21;;;;;;;9.50;6.60;;;;;;;;;;5071952;28;20452;-78
2021/09/03 04:42:48;;;;;;;8.90;6.90;;;;;;;;;;5072026;28;20484;-77
2021/09/03 04:45:16;;;;;;;8.30;6.87;;;;;;;;;;5072963;28;20533;-78
2021/09/03 04:47:43;;;;;;;7.67;6.40;;;;;;;;;;5072222;28;20584;-77
2021/09/03 04:50:13;;;;;;;12.20;7.20;;;;;;;;;;5071536;28;20885;-77
2021/09/03 04:52:41;;;;;;;9.40;7.13;;;;;;;;;;5071467;28;20502;-76
2021/09/03 04:55:09;;;;;;;7.33;6.43;;;;;;;;;;5071826;28;20525;-76
2021/09/03 04:57:39;;;;;;;8.07;6.23;;;;;;;;;;5071533;28;20484;-78
2021/09/03 05:00:07;;;;;;;9.13;7.60;;;;;;;;;;5071514;28;20441;-76
2021/09/03 05:02:34;;;;;;;7.60;6.07;;;;;;;;;;5071054;28;20442;-77
2021/09/03 05:05:02;;;;;;;7.40;6.10;;;;;;;;;;5072174;28;20453;-76
2021/09/03 05:07:30;;;;;;;8.43;6.40;;;;;;;;;;5071491;28;20508;-76
2021/09/03 05:09:57;;;;;;;9.10;6.47;;;;;;;;;;5071153;28;20450;-76
2021/09/03 05:12:24;;;;;;;7.80;5.57;;;;;;;;;;5071124;28;20437;-76
2021/09/03 05:14:52;;;;;;;8.77;5.87;;;;;;;;;;5071517;28;20455;-77
2021/09/03 05:17:19;;;;;;;9.10;6.57;;;;;;;;;;5071184;28;20854;-77
2021/09/03 05:19:46;;;;;;;8.63;6.60;;;;;;;;;;5070604;28;20445;-77
2021/09/03 05:22:13;;;;;;;9.23;6.00;;;;;;;;;;5071116;28;21025;-77
2021/09/03 05:24:41;;;;;;;8.40;6.67;;;;;;;;;;5070769;28;20445;-77
2021/09/03 05:27:09;;;;;;;8.93;5.87;;;;;;;;;;5071318;28;20976;-77
2021/09/03 05:29:36;;;;;;;8.03;6.27;;;;;;;;;;5070701;28;20433;-76
2021/09/03 05:32:03;;;;;;;9.33;6.90;;;;;;;;;;5071101;28;20437;-75
2021/09/03 05:34:30;;;;;;;9.40;7.13;;;;;;;;;;5071238;28;20532;-78
2021/09/03 05:36:57;;;;;;;11.43;6.80;;;;;;;;;;5071146;28;20961;-77
2021/09/03 05:39:24;;;;;;;11.10;6.37;;;;;;;;;;5070197;28;20450;-76
2021/09/03 05:41:53;;;;;;;10.77;7.07;;;;;;;;;;5070591;28;20978;-76
2021/09/03 05:44:20;;;;;;;9.50;6.60;;;;;;;;;;5070713;28;20967;-78
2021/09/03 05:46:47;;;;;;;10.30;7.97;;;;;;;;;;5070305;28;20445;-78
2021/09/03 05:49:14;;;;;;;10.47;6.70;;;;;;;;;;5070675;28;20479;-77
2021/09/03 05:51:41;;;;;;;7.53;6.30;;;;;;;;;;5071016;28;20452;-76
2021/09/03 05:54:09;;;;;;;9.90;7.30;;;;;;;;;;5070658;28;20533;-76
2021/09/03 05:56:36;;;;;;;9.30;6.60;;;;;;;;;;5069807;28;20483;-76
2021/09/03 05:59:05;;;;;;;9.17;7.23;;;;;;;;;;5070713;28;20442;-75
2021/09/03 06:01:32;;;;;;;9.63;7.80;;;;;;;;;;5070076;28;20536;-77
2021/09/03 06:03:59;;;;;;;9.17;8.17;;;;;;;;;;5070550;28;20524;-77
2021/09/03 06:06:27;;;;;;;10.10;7.60;;;;;;;;;;5070501;28;20526;-76
2021/09/03 06:08:54;;;;;;;8.80;7.03;;;;;;;;;;5070968;28;20817;-76
2021/09/03 06:11:24;;;;;;;8.77;7.10;;;;;;;;;;5070570;28;20819;-77
2021/09/03 06:13:52;;;;;;;8.73;7.27;;;;;;;;;;5070424;28;20816;-76
2021/09/03 06:16:21;;;;;;;9.50;7.60;;;;;;;;;;5070004;28;20445;-77
2021/09/03 06:18:48;;;;;;;11.10;7.40;;;;;;;;;;5070345;28;20507;-77
2021/09/03 06:21:16;;;;;;;10.13;7.70;;;;;;;;;;5070989;28;20532;-76
2021/09/03 06:23:43;;;;;;;7.70;6.90;;;;;;;;;;5069837;28;21262;-74
2021/09/03 06:26:10;;;;;;;10.40;7.50;;;;;;;;;;5070498;28;20469;-76
2021/09/03 06:28:37;;;;;;;9.63;6.67;;;;;;;;;;5070381;28;20456;-77
2021/09/03 06:31:04;;;;;;;10.93;7.17;;;;;;;;;;5070258;28;20528;-76
2021/09/03 06:33:33;;;;;;;9.67;7.83;;;;;;;;;;5070111;28;21036;-76
2021/09/03 06:36:00;;;;;;;10.60;7.60;;;;;;;;;;5070761;28;20544;-78
2021/09/03 06:38:28;;;;;;;14.10;7.57;;;;;;;;;;5069525;28;20842;-76
2021/09/03 06:40:55;;;;;;;7.10;6.40;;;;;;;;;;5070263;28;20445;-77
2021/09/03 06:43:22;;;;;;;7.80;6.30;;;;;;;;;;5070313;28;20524;-77
2021/09/03 06:45:49;;;;;;;10.00;7.17;;;;;;;;;;5070197;28;20532;-77
2021/09/03 06:48:21;;;;;;;9.80;7.73;;;;;;;;;;5070297;28;20580;-76
2021/09/03 06:50:50;;;;;;;9.67;6.87;;;;;;;;;;5070330;28;20453;-77
2021/09/03 06:53:17;;;;;;;10.00;6.93;;;;;;;;;;5074361;28;20528;-76
2021/09/03 06:55:44;;;;;;;8.83;7.00;;;;;;;;;;5073785;28;20548;-77
2021/09/03 06:58:11;;;;;;;8.17;7.37;;;;;;;;;;5074394;28;20481;-76
2021/09/03 07:00:38;;;;;;;10.00;8.60;;;;;;;;;;5073431;28;20785;-76
2021/09/03 07:03:06;;;;;;;11.13;7.20;;;;;;;;;;5073874;28;20528;-76
2021/09/03 07:05:33;;;;;;;8.93;7.30;;;;;;;;;;5073524;28;20448;-77
2021/09/03 07:08:01;;;;;;;9.20;7.60;;;;;;;;;;5074529;28;20449;-77
2021/09/03 07:10:28;;;;;;;9.57;7.70;;;;;;;;;;5073129;28;20449;-76
2021/09/03 07:12:56;;;;;;;10.33;8.00;;;;;;;;;;5073706;28;20503;-76
2021/09/03 07:15:23;;;;;;;12.10;8.37;;;;;;;;;;5073455;28;21018;-75
2021/09/03 07:17:50;;;;;;;8.77;7.20;;;;;;;;;;5073443;28;20489;-77
2021/09/03 07:20:18;;;;;;;10.00;7.60;;;;;;;;;;5073883;28;20453;-77
2021/09/03 07:22:50;;;;;;;9.50;6.73;;;;;;;;;;5073471;28;20565;-76
2021/09/03 07:25:19;;;;;;;10.60;7.57;;;;;;;;;;5073194;28;20540;-76
2021/09/03 07:27:46;;;;;;;11.70;7.87;;;;;;;;;;5073091;28;20524;-77
2021/09/03 07:30:13;;;;;;;13.20;7.47;;;;;;;;;;5073714;28;20536;-77
2021/09/03 07:32:43;;;;;;;7.60;6.80;;;;;;;;;;5072819;28;20449;-77
2021/09/03 07:35:11;;;;;;;13.23;7.17;;;;;;;;;;5074027;28;20953;-77
2021/09/03 07:37:38;;;;;;;7.93;6.20;;;;;;;;;;5072273;28;20468;-77
2021/09/03 07:40:06;;;;;;;10.37;6.93;;;;;;;;;;5073033;28;20445;-76
2021/09/03 07:42:35;;;;;;;8.47;7.50;;;;;;;;;;5073216;28;20520;-76
2021/09/03 07:45:02;;;;;;;7.87;6.53;;;;;;;;;;5074695;28;20476;-77
2021/09/03 07:47:29;;;;;;;10.57;7.07;;;;;;;;;;5070870;28;20464;-76
2021/09/03 07:49:56;;;;;;;10.73;7.50;;;;;;;;;;5072949;28;20473;-77
2021/09/03 07:52:23;;;;;;;7.83;6.63;;;;;;;;;;5072889;28;20456;-75
2021/09/03 07:54:51;;;;;;;8.23;7.07;;;;;;;;;;5072716;28;20433;-77
2021/09/03 07:57:18;;;;;;;8.80;6.63;;;;;;;;;;5072642;28;21002;-77
2021/09/03 07:59:46;;;;;;;9.93;6.80;;;;;;;;;;5072564;28;20450;-77
2021/09/03 08:02:13;;;;;;;12.53;6.57;;;;;;;;;;5073059;28;20441;-77
2021/09/03 08:04:41;;;;;;;8.10;6.10;;;;;;;;;;5072014;28;20441;-76
2021/09/03 08:07:08;;;;;;;12.00;7.80;;;;;;;;;;5072791;28;20536;-75
2021/09/03 08:09:35;;;;;;;8.60;6.70;;;;;;;;;;5072070;28;20945;-77
2021/09/03 08:12:02;;;;;;;13.47;7.87;;;;;;;;;;5071474;28;20947;-76
2021/09/03 08:14:30;;;;;;;10.87;6.93;;;;;;;;;;5072503;28;20454;-77
2021/09/03 08:16:58;;;;;;;15.23;7.03;;;;;;;;;;5072284;28;20816;-76
2021/09/03 08:19:25;;;;;;;9.03;5.90;;;;;;;;;;5070679;28;20455;-77
2021/09/03 08:21:52;;;;;;;8.90;6.77;;;;;;;;;;5072466;28;20525;-78
2021/09/03 08:24:20;;;;;;;7.77;5.57;;;;;;;;;;5072304;28;20584;-78
2021/09/03 08:26:47;;;;;;;7.80;6.27;;;;;;;;;;5071907;28;20448;-75
2021/09/03 08:29:14;;;;;;;8.67;7.17;;;;;;;;;;5072816;28;20813;-77
2021/09/03 08:31:41;;;;;;;7.90;6.73;;;;;;;;;;5071710;28;20445;-74
2021/09/03 08:34:10;;;;;;;6.93;6.23;;;;;;;;;;5072413;28;20455;-78
2021/09/03 08:36:37;;;;;;;11.03;7.00;;;;;;;;;;5072266;28;20442;-78
2021/09/03 08:39:05;;;;;;;8.27;6.70;;;;;;;;;;5072372;28;20932;-80
2021/09/03 08:41:32;;;;;;;12.40;7.03;;;;;;;;;;5071540;28;20450;-79
2021/09/03 08:44:00;;;;;;;8.70;6.57;;;;;;;;;;5072169;28;20448;-75
2021/09/03 08:46:28;;;;;;;7.27;6.47;;;;;;;;;;5071588;28;20449;-78
2021/09/03 08:48:55;;;;;;;8.30;6.40;;;;;;;;;;5071931;28;20559;-78
2021/09/03 08:51:24;;;;;;;6.93;6.17;;;;;;;;;;5069647;28;20455;-78
2021/09/03 08:53:51;;;;;;;6.73;5.93;;;;;;;;;;5064476;28;20889;-78
2021/09/03 08:56:20;;;;;;;6.37;5.47;;;;;;;;;;5066915;28;20445;-79
2021/09/03 08:58:47;;;;;;;10.80;6.47;;;;;;;;;;5065936;28;20473;-78
2021/09/03 09:01:16;;;;;;;8.07;6.47;;;;;;;;;;5070152;28;20450;-79
2021/09/03 09:03:44;;;;;;;9.33;6.40;;;;;;;;;;5070148;28;21198;-76
2021/09/03 09:06:11;;;;;;;7.20;6.03;;;;;;;;;;5062675;28;20462;-79
2021/09/03 09:08:40;;;;;;;10.73;7.03;;;;;;;;;;5067067;28;20442;-79
2021/09/03 09:11:09;;;;;;;7.90;6.97;;;;;;;;;;5068958;28;20966;-78
2021/09/03 09:13:37;;;;;;;9.43;6.00;;;;;;;;;;5062852;28;20925;-77
2021/09/03 09:16:07;;;;;;;6.13;5.50;;;;;;;;;;5065839;28;21013;-79
2021/09/03 09:18:36;;;;;;;8.80;7.03;;;;;;;;;;5070028;28;20469;-77
2021/09/03 09:21:10;;;;;;;8.30;6.60;;;;;;;;;;5065496;28;20991;-75
2021/09/03 09:23:42;;;;;;;10.23;6.00;;;;;;;;;;5068960;28;20854;-78
2021/09/03 09:26:10;;;;;;;14.20;5.90;;;;;;;;;;5072599;28;20438;-75
2021/09/03 09:28:38;;;;;;;9.10;5.60;;;;;;;;;;5073667;28;20494;-78
2021/09/03 09:31:05;;;;;;;9.40;6.00;;;;;;;;;;5069910;28;20449;-76
2021/09/03 09:33:33;;;;;;;6.80;6.07;;;;;;;;;;5058248;28;20445;-77
2021/09/03 09:36:01;;;;;;;10.60;5.57;;;;;;;;;;5065945;28;20442;-78
2021/09/03 09:38:29;;;;;;;6.47;5.80;;;;;;;;;;5067855;28;20500;-76
2021/09/03 09:40:58;;;;;;;7.23;6.37;;;;;;;;;;5068085;28;20485;-77
2021/09/03 09:43:27;;;;;;;6.63;5.93;;;;;;;;;;5069920;28;20770;-76
2021/09/03 09:46:14;;;;;;;6.90;5.93;;;;;;;;;;5070896;28;20437;-76
2021/09/03 09:49:00;;;;;;;6.87;6.17;;;;;;;;;;5056100;28;20871;-76
2021/09/03 09:51:28;;;;;;;6.60;5.67;;;;;;;;;;5069796;28;20478;-78
2021/09/03 09:53:57;;;;;;;9.47;6.13;;;;;;;;;;5070155;28;20434;-75
2021/09/03 09:56:26;;;;;;;6.77;5.70;;;;;;;;;;5069614;28;20433;-75
2021/09/03 09:58:54;;;;;;;9.83;6.20;;;;;;;;;;5069035;28;20587;-76
2021/09/03 10:01:22;;;;;;;8.37;5.63;;;;;;;;;;5068842;28;20548;-75
2021/09/03 10:03:49;;;;;;;8.63;6.10;;;;;;;;;;5068960;28;20437;-77
2021/09/03 10:06:17;;;;;;;8.03;6.43;;;;;;;;;;5069538;28;20433;-79
2021/09/03 10:08:46;;;;;;;6.33;5.73;;;;;;;;;;5062439;28;20442;-77
2021/09/03 10:11:14;;;;;;;8.27;5.70;;;;;;;;;;5049821;28;20450;-78
2021/09/03 10:13:43;;;;;;;10.07;6.37;;;;;;;;;;5062669;28;20442;-79
2021/09/03 10:16:10;;;;;;;11.03;7.20;;;;;;;;;;5049643;28;20909;-78
2021/09/03 10:18:38;;;;;;;7.47;5.67;;;;;;;;;;5053713;28;20477;-78
2021/09/03 10:21:06;;;;;;;8.63;5.90;;;;;;;;;;5068334;28;20441;-79
2021/09/03 10:23:50;;;;;;;8.50;6.53;;;;;;;;;;5069417;28;20924;-79
2021/09/03 10:26:17;;;;;;;7.03;6.00;;;;;;;;;;5070062;28;20452;-79
2021/09/03 10:28:46;;;;;;;8.83;5.83;;;;;;;;;;5069055;28;20442;-78
2021/09/03 10:31:18;;;;;;;7.73;6.60;;;;;;;;;;5060734;28;20525;-78
2021/09/03 10:33:46;;;;;;;6.20;5.60;;;;;;;;;;5069386;28;20918;-78
2021/09/03 10:36:13;;;;;;;7.77;6.27;;;;;;;;;;5070117;28;20509;-80
2021/09/03 10:38:44;;;;;;;7.00;6.03;;;19.40;1.00;;;;;;5070207;28;20568;-81
2021/09/03 10:41:51;;;;;;;9.63;6.13;;;21.20;1.00;;;;;;5072010;28;20426;-79
2021/09/03 10:44:19;;;;;;;6.17;5.57;;;21.10;1.00;;;;;;5070183;28;20437;-80
2021/09/03 10:46:47;;;;;;;6.50;5.87;;;21.20;1.00;;;;;;5069656;28;20854;-79
2021/09/03 10:49:16;;;;;;;6.53;5.90;;;21.30;1.00;;;;;;5070168;28;20568;-77
2021/09/03 10:51:51;;;;;;;7.03;6.00;;;;;;;;;;5069444;28;20456;-74
2021/09/03 10:54:18;;;;;;;7.40;6.40;;;;;;;;;;5064769;28;20792;-75
2021/09/03 10:56:56;;;;;;;7.37;6.67;;;;;;;;;;5067557;28;20523;-78
2021/09/03 10:59:25;;;;;;;6.83;6.13;;;;;;;;;;5067292;28;20485;-74
2021/09/03 11:01:56;;;;;;;6.93;5.53;;;;;;;;;;5070505;28;20473;-76
2021/09/03 11:04:24;;;;;;;8.93;6.00;;;;;;;;;;5070261;28;20743;-74
2021/09/03 11:07:00;;;;;;;6.97;5.23;;;;;;;;;;5053985;28;20442;-76
2021/09/03 11:09:30;;;;;;;6.67;5.20;;;;;;;;;;5062583;28;20449;-75
2021/09/03 11:11:58;;;;;;;6.93;5.30;;;;;;;;;;5069939;28;20441;-76
2021/09/03 11:14:28;;;;;;;7.97;5.43;;;;;;;;;;5068107;28;20863;-76
2021/09/03 11:16:57;;;;;;;10.67;6.70;;;;;;;;;;5069653;28;20438;-75
2021/09/03 11:19:25;;;;;;;7.90;6.30;;;;;;;;;;5069591;28;20477;-75
2021/09/03 11:21:54;;;;;;;10.30;5.97;;;;;;;;;;5069338;28;20945;-76
2021/09/03 11:24:22;;;;;;;6.30;5.63;;;;;;;;;;5069800;28;20441;-76
2021/09/03 11:26:50;;;;;;;7.67;6.40;;;;;;;;;;5069110;28;21011;-77
2021/09/03 11:29:19;;;;;;;12.10;6.67;;;;;;;;;;5068252;28;20456;-76
2021/09/03 11:31:55;;;;;;;5.90;5.30;;;;;;;;;;5069793;28;20528;-75
2021/09/03 11:34:37;;;;;;;12.13;6.67;;;;;;;;;;5067850;28;20537;-76
2021/09/03 11:37:04;;;;;;;7.13;5.40;;;;;;;;;;5068299;28;20476;-76
2021/09/03 11:39:33;;;;;;;6.87;6.27;;;;;;;;;;5073042;28;21031;-76
2021/09/03 11:42:00;;;;;;;8.10;5.40;;;;;;;;;;5073500;28;20456;-76
2021/09/03 11:44:27;;;;;;;8.10;5.50;;;;;;;;;;5072738;28;20507;-76
2021/09/03 11:46:57;;;;;;;5.53;4.83;;;;;;;;;;5073682;28;20910;-76
2021/09/03 11:49:24;;;;;;;6.63;5.93;;;;;;;;;;5072577;28;20571;-76
2021/09/03 11:52:03;;;;;;;6.40;5.37;;;;;;;;;;5063318;28;20544;-77
2021/09/03 11:54:31;;;;;;;6.43;5.23;;;;;;;;;;5072836;28;20858;-76
2021/09/03 11:56:58;;;;;;;6.70;6.00;;;;;;;;;;5063028;28;20443;-76
2021/09/03 11:59:25;;;;;;;6.27;5.67;;;;;;;;;;5063025;28;20993;-75
2021/09/03 12:02:03;;;;;;;6.63;5.53;;;;;;;;;;5054048;28;20470;-76
2021/09/03 12:04:31;;;;;;;6.13;5.50;;;;;;;;;;5065297;28;20454;-75
2021/09/03 12:06:58;;;;;;;5.97;5.37;;;;;;;;;;5071686;28;20470;-76
2021/09/03 12:09:33;;;;;;;8.00;5.67;;;;;;;;;;5063145;28;20533;-75
2021/09/03 12:12:00;;;;;;;6.40;5.70;;;;;;;;;;5058882;28;20447;-75
2021/09/03 12:14:27;;;;;;;7.43;6.20;;;;;;;;;;5070612;28;20445;-75
2021/09/03 12:16:56;;;;;;;5.60;5.10;;;;;;;;;;5055341;28;20485;-75
2021/09/03 12:19:26;;;;;;;5.83;5.30;;;;;;;;;;5062960;28;20477;-75
2021/09/03 12:21:53;;;;;;;7.07;5.50;;;;;;;;;;5073031;28;20488;-76
2021/09/03 12:24:22;;;;;;;11.03;5.77;;;;;;;;;;5072039;28;20451;-76
2021/09/03 12:26:51;;;;;;;6.97;5.80;;;;;;;;;;5072634;28;20540;-75
2021/09/03 12:29:19;;;;;;;10.50;5.77;;;;;;;;;;5072134;28;20862;-75
2021/09/03 12:31:50;;;;;;;8.57;5.70;;;;;;;;;;5055832;28;20468;-75
2021/09/03 12:34:17;;;;;;;6.40;5.40;;;;;;;;;;5062981;28;20525;-75
2021/09/03 12:36:46;;;;;;;6.40;4.87;;;;;;;;;;5072084;28;20532;-74
2021/09/03 12:39:13;;;;;;;5.47;4.67;;;;;;;;;;5071860;28;20540;-75
2021/09/03 12:41:42;;;;;;;5.40;4.20;;;;;;;;;;5070141;28;20532;-76
2021/09/03 12:44:10;;;;;;;5.10;4.70;;;;;;;;;;5072424;28;20822;-76
2021/09/03 12:46:38;;;;;;;5.70;4.80;;;;;;;;;;5071598;28;20434;-76
2021/09/03 12:49:07;;;;;;;5.97;5.40;;;;;;;;;;5071135;28;21001;-75
2021/09/03 12:51:35;;;;;;;5.33;4.83;;;;;;;;;;5071563;28;20445;-77
2021/09/03 12:54:04;;;;;;;6.07;5.50;;;;;;;;;;5071693;28;20437;-76
2021/09/03 12:56:32;;;;;;;7.10;5.93;;;;;;;;;;5070997;28;20972;-77
2021/09/03 12:58:59;;;;;;;5.80;5.30;;;;;;;;;;5071107;28;20479;-75
2021/09/03 13:01:26;;;;;;;6.07;4.90;;;;;;;;;;5071998;28;20603;-78
2021/09/03 13:03:53;;;;;;;6.23;5.53;;;;;;;;;;5072063;28;20449;-78
2021/09/03 13:06:21;;;;;;;5.53;5.03;;;;;;;;;;5072365;28;20847;-75
2021/09/03 13:08:48;;;;;;;5.90;5.30;;;;;;;;;;5070207;28;20438;-77
2021/09/03 13:11:17;;;;;;;7.13;5.27;;;;;;;;;;5071723;28;20549;-75
2021/09/03 13:13:46;;;;;;;5.43;4.77;;;;;;;;;;5065195;28;20561;-75
2021/09/03 13:16:13;;;;;;;5.43;4.87;;;;;;;;;;5052491;28;20492;-76
2021/09/03 13:18:40;;;;;;;5.07;4.57;;;;;;;;;;5070270;28;20793;-76
2021/09/03 13:21:07;;;;;;;5.17;4.67;;;;;;;;;;5071520;28;20948;-76
2021/09/03 13:23:35;;;;;;;6.40;5.20;;;;;;;;;;5071126;28;20807;-75
2021/09/03 13:26:02;;;;;;;6.27;4.37;;;;;;;;;;5071569;28;20532;-76
2021/09/03 13:28:31;;;;;;;5.43;4.77;;;;;;;;;;5070971;28;20490;-78
2021/09/03 13:30:58;;;;;;;7.47;4.97;;;;;;;;;;5071481;28;20481;-75
2021/09/03 13:33:25;;;;;;;5.97;5.37;;;;;;;;;;5070764;28;20819;-75
2021/09/03 13:35:52;;;;;;;6.07;5.27;;;;;;;;;;5071295;28;20536;-74
2021/09/03 13:38:19;;;;;;;6.20;5.00;;;;;;;;;;5070293;28;20450;-75
2021/09/03 13:40:47;;;;;;;6.33;5.07;;;;;;;;;;5070677;28;20570;-74
2021/09/03 13:43:14;;;;;;;5.10;4.60;;;;;;;;;;5071004;28;20441;-74
2021/09/03 13:45:42;;;;;;;6.87;5.20;;;;;;;;;;5070812;28;20502;-74
2021/09/03 13:48:10;;;;;;;5.70;5.20;;;;;;;;;;5070673;28;20473;-74
2021/09/03 13:50:38;;;;;;;6.47;5.20;;;;;;;;;;5070746;28;20440;-75
2021/09/03 13:53:05;;;;;;;6.07;5.53;;;;;;;;;;5070560;28;20442;-74
2021/09/03 13:55:33;;;;;;;6.03;4.67;;;;;;;;;;5070941;28;20500;-75
2021/09/03 13:58:00;;;;;;;7.27;5.07;;;;;;;;;;5070956;28;20532;-74
2021/09/03 14:00:28;;;;;;;5.00;4.60;;;;;;;;;;5070208;28;20491;-74
2021/09/03 14:02:58;;;;;;;4.90;4.50;;;;;;;;;;5071021;28;20520;-75
2021/09/03 14:05:25;;;;;;;32.13;9.00;;;;;;;;;;5070498;28;20543;-75
2021/09/03 14:07:52;;;;;;;5.77;4.97;;;;;;;;;;5071291;28;20436;-75
2021/09/03 14:10:19;;;;;;;5.23;4.13;;;;;;;;;;5070568;28;20536;-75
2021/09/03 14:12:47;;;;;;;5.00;4.50;;;;;;;;;;5070333;28;20994;-75
2021/09/03 14:15:14;;;;;;;7.30;5.33;;;;;;;;;;5070700;28;20477;-74
2021/09/03 14:17:41;;;;;;;5.63;4.20;;;;;;;;;;5070788;28;20455;-75
2021/09/03 14:20:10;;;;;;;5.53;4.40;;;;;;;;;;5070685;28;20485;-74
2021/09/03 14:22:38;;;;;;;5.17;4.67;;;;;;;;;;5070669;28;20843;-75
2021/09/03 14:25:05;;;;;;;6.83;5.27;;;;;;;;;;5072101;28;20999;-75
2021/09/03 14:27:32;;;;;;;6.90;5.10;;;;;;;;;;5076695;28;20510;-75
2021/09/03 14:29:59;;;;;;;6.37;5.27;;;;;;;;;;5070729;28;20448;-74
2021/09/03 14:32:27;;;;;;;5.50;5.00;;;;;;;;;;5070299;28;20476;-75
2021/09/03 14:34:54;;;;;;;5.40;4.77;;;;;;;;;;5070320;28;20449;-74
2021/09/03 14:37:23;;;;;;;6.17;5.57;;;;;;;;;;5070602;28;20536;-75
2021/09/03 14:39:50;;;;;;;5.23;4.73;;;;;;;;;;5070070;28;20487;-75
2021/09/03 14:42:17;;;;;;;5.00;4.60;;;;;;;;;;5070631;28;20479;-75